RKSI Airport Information

Runway Information
Runway 15L Length 12303 ft width 197 ft
Elevation 23 ft Threshold 0 ft Heading 145
Runway 33R Length 12303 ft Width 197 ft
Elevation 23 ft Threshold 0 ft Heading 325
Runway 15R Length 12303 ft width 197 ft
Elevation 23 ft Threshold 0 ft Heading 145
Runway 33L Length 12303 ft Width 197 ft
Elevation 23 ft Threshold 0 ft Heading 325
Runway 16 Length 13000 ft width 197 ft
Elevation 0 ft Threshold 0 ft Heading 153
Runway 34 Length 13000 ft Width 197 ft
Elevation 0 ft Threshold 0 ft Heading 333
Airport Frequencies
Type APP Name SEOUL APP Frequency 120.8 MHZ
Type ATIS Name ATIS Frequency 23.025 MHZ
Type CLD Name CLNC DEL Frequency 121 MHZ
Type DEP Name SEOUL DEP Frequency 121.35 MHZ
Type GND Name GND Frequency 121.4 MHZ
Type RMP Name RAMP CON Frequency 121.65 MHZ
Type TWR Name TWR Frequency 118.2 MHZ
Airport Navaids
Type VOR-DME Name Incheon Frequency 113800 KHZ
Airport Weather Information & NOTAM
ADDS - METARS form results

(0848 UTC 24 April 2018)
 
METAR text: RKSI 240830Z 04015KT 9999 SCT040 BKN150 15/04 Q1011 NOSIG
Conditions at: RKSI (CHAJANG NI , KR) observed 0830 UTC 24 April 2018
Temperature: 15.0°C (59°F)
Dewpoint: 4.0°C (39°F) [RH = 48%]
Pressure (altimeter): 29.85 inches Hg (1011.0 mb)
Winds: from the NE (40 degrees) at 17 MPH (15 knots; 7.8 m/s)
Visibility: 6 or more miles (10+ km)
Ceiling: 15000 feet AGL
Clouds: scattered clouds at 4000 feet AGL
broken clouds at 15000 feet AGL
Weather: no significant weather observed at this time

METAR text: RKSI 240800Z 04015KT 9999 SCT040 BKN150 15/04 Q1011 NOSIG
Conditions at: RKSI (CHAJANG NI , KR) observed 0800 UTC 24 April 2018
Temperature: 15.0°C (59°F)
Dewpoint: 4.0°C (39°F) [RH = 48%]
Pressure (altimeter): 29.85 inches Hg (1011.0 mb)
Winds: from the NE (40 degrees) at 17 MPH (15 knots; 7.8 m/s)
Visibility: 6 or more miles (10+ km)
Ceiling: 15000 feet AGL
Clouds: scattered clouds at 4000 feet AGL
broken clouds at 15000 feet AGL
Weather: no significant weather observed at this time